Flight Track Log - Related Links

Times and Time Zones

All times are in EDT time to prevent confusion due to time zone crossing. See the TRS412 flight status page for this flight to view local times or setup timezone preferences in your user account.

Time Position Orientation Groundspeed Altitude Reporting Facility
EDT Latitude Longitude Course Direction KTS MPH feet Rate Location/Type
Thu 06:28:40 AM 41.8000 -87.8000 200° South 167 192 2,500  Level Chicago TRACON
Thu 06:29:34 AM 41.7667 -87.8167 200° South 198 228 3,900 1,948 Climbing Chicago TRACON
Thu 06:31:14 AM 41.6522 -87.8364 187° South 256 295 7,500 2,385 Climbing Chicago Center
Thu 06:32:15 AM 41.5736 -87.8494 187° South 279 321 10,300 2,182 Climbing Chicago Center
Thu 06:33:15 AM 41.4917 -87.8650 188° South 292 336 11,900 1,240 Climbing Chicago Center
Thu 06:34:16 AM 41.4022 -87.8781 186° South 316 364 12,800 1,574 Climbing Chicago Center
Thu 06:35:17 AM 41.2994 -87.8869 184° South 359 413 15,100 2,182 Climbing Chicago Center
Thu 06:36:17 AM 41.1925 -87.8917 182° South 380 437 17,200 2,231 Climbing Chicago Center
Thu 06:37:18 AM 41.0833 -87.8883 179° South 391 450 19,600 2,311 Climbing Chicago Center
Thu 06:38:19 AM 40.9681 -87.8828 178° South 411 473 21,900 2,281 Climbing Chicago Center
Thu 06:39:19 AM 40.8256 -87.8789 179° South 425 489 24,200 2,083 Climbing Chicago Center
Thu 06:40:20 AM 40.7025 -87.8747 179° South 441 507 26,100 1,736 Climbing Chicago Center
Thu 06:41:20 AM 40.5778 -87.8703 178° South 449 517 27,700 1,736 Climbing Chicago Center
Thu 06:42:21 AM 40.4489 -87.8672 179° South 462 532 29,600 2,162 Climbing Chicago Center
Thu 06:43:11 AM 40.3408 -87.8658 179° South 456 525 31,700 2,073 Climbing Indianapolis Center
Thu 06:44:11 AM 40.2197 -87.8611 178° South 445 512 33,400 1,140 Climbing Indianapolis Center
Thu 06:45:12 AM 40.0961 -87.8547 178° South 445 512 34,000 787 Climbing Indianapolis Center
Thu 06:46:13 AM 39.9678 -87.8481 178° South 459 528 35,000 885 Climbing Indianapolis Center
Thu 06:47:14 AM 39.8375 -87.8428 178° South 467 537 35,800 787 Climbing Indianapolis Center
Thu 06:48:15 AM 39.7061 -87.8367 178° South 472 543 36,600 595 Climbing Indianapolis Center
Thu 06:49:15 AM 39.5742 -87.8317 178° South 477 549 37,000 198 Climbing Indianapolis Center
Thu 06:50:16 AM 39.4411 -87.8256 178° South 479 551 37,000  Level Indianapolis Center
Thu 06:51:17 AM 39.3083 -87.8197 178° South 479 551 37,000  Level Indianapolis Center
Thu 06:52:18 AM 39.1736 -87.8150 178° South 482 555 37,000  Level Indianapolis Center
Thu 06:53:19 AM 39.0383 -87.8067 177° South 485 558 37,000  Level Indianapolis Center
Thu 06:54:19 AM 38.8825 -87.7453 163° South 485 558 37,000  Level Indianapolis Center
Thu 06:55:20 AM 38.7528 -87.6931 163° South 488 562 37,000  Level Indianapolis Center
Thu 06:56:21 AM 38.6247 -87.6425 163° South 482 555 37,000  Level Indianapolis Center
Thu 06:57:22 AM 38.5003 -87.5928 163° South 470 541 37,000  Level Indianapolis Center
Thu 06:58:23 AM 38.3792 -87.5444 163° South 461 531 37,000  Level Indianapolis Center
Thu 06:59:24 AM 38.2589 -87.4983 163° South 454 522 37,000  Level Indianapolis Center
Thu 07:00:25 AM 38.1397 -87.4500 162° South 453 521 37,000  Level Indianapolis Center
Thu 07:01:25 AM 38.0186 -87.4036 163° South 456 525 37,000  Level Indianapolis Center
Thu 07:02:26 AM 37.8947 -87.3533 162° South 468 539 37,000  Level Indianapolis Center
Thu 07:03:27 AM 37.7672 -87.3044 163° South 473 544 37,000  Level Indianapolis Center
Thu 07:04:28 AM 37.6394 -87.2553 163° South 477 549 37,000  Level Indianapolis Center
Thu 07:05:08 AM 37.5506 -87.2208 163° South 474 545 37,000  Level Memphis Center
Thu 07:06:08 AM 37.4244 -87.1736 163° South 474 545 37,000  Level Memphis Center
Thu 07:07:08 AM 37.2981 -87.1239 163° South 479 551 37,000  Level Memphis Center
Thu 07:08:08 AM 37.1697 -87.0744 163° South 484 557 37,000  Level Memphis Center
Thu 07:09:08 AM 37.0433 -87.0278 164° South 479 551 37,000  Level Memphis Center
Thu 07:10:08 AM 36.9044 -86.9739 163° South 484 557 37,000  Level Memphis Center
Thu 07:11:08 AM 36.7761 -86.9247 163° South 484 557 37,000  Level Memphis Center
Thu 07:12:08 AM 36.6533 -86.8603 157° South 484 557 37,000  Level Memphis Center
Thu 07:13:08 AM 36.5325 -86.7906 155° Southeast 479 551 37,000 -50 Level Memphis Center
Thu 07:14:08 AM 36.4117 -86.7186 154° Southeast 479 551 36,900 -450 Descending Memphis Center
Thu 07:15:08 AM 36.2953 -86.6594 158° South 492 566 36,100 -750 Descending Memphis Center
Thu 07:16:08 AM 36.1725 -86.5956 157° South 487 560 35,400 -700 Descending Memphis Center
Thu 07:17:08 AM 36.0494 -86.5292 156° South 478 550 34,700 -750 Descending Memphis Center
Thu 07:18:08 AM 35.9264 -86.4658 157° South 483 556 33,900 -750 Descending Memphis Center
Thu 07:19:08 AM 35.7908 -86.3928 156° South 483 556 33,200 -278 Descending Memphis Center
Thu 07:21:22 AM 35.5508 -86.2136 149° Southeast 482 555 33,000 -62 Descending Atlanta Center
Thu 07:22:22 AM 35.4400 -86.1214 146° Southeast 477 549 33,000  Level Atlanta Center
Thu 07:23:22 AM 35.3267 -86.0319 147° Southeast 477 549 33,000 -252 Level Atlanta Center
Thu 07:24:21 AM 35.2028 -85.9400 149° Southeast 482 555 32,500 -655 Descending Atlanta Center
Thu 07:25:21 AM 35.0936 -85.8486 146° Southeast 477 549 31,700 -793 Descending Atlanta Center
Thu 07:26:22 AM 34.9822 -85.7600 147° Southeast 477 549 30,900 -1,150 Descending Atlanta Center
Thu 07:27:21 AM 34.8728 -85.6742 147° Southeast 477 549 29,400 -1,600 Descending Atlanta Center
Thu 07:28:22 AM 34.7656 -85.5886 147° Southeast 477 549 27,700 -2,380 Descending Atlanta Center
Thu 07:29:22 AM 34.6600 -85.5061 147° Southeast 477 549 24,600 -1,850 Descending Atlanta Center
Thu 07:30:22 AM 34.5669 -85.4364 148° Southeast 466 536 24,000 -650 Descending Atlanta Center
Thu 07:31:22 AM 34.4594 -85.3514 147° Southeast 455 524 23,300 -900 Descending Atlanta Center
Thu 07:32:22 AM 34.3517 -85.2642 146° Southeast 455 524 22,200 -2,050 Descending Atlanta Center
Thu 07:33:22 AM 34.2461 -85.1847 148° Southeast 446 513 19,200 -3,000 Descending Atlanta Center
Thu 07:34:22 AM 34.1486 -85.1031 145° Southeast 439 505 16,200 -2,600 Descending Atlanta Center
Thu 07:35:22 AM 34.0597 -84.9892 133° Southeast 430 495 14,000 -1,650 Descending Atlanta Center
Thu 07:36:22 AM 33.9833 -84.8906 133° Southeast 409 471 12,900 -1,000 Descending Atlanta Center
Thu 07:37:22 AM 33.9067 -84.7922 133° Southeast 403 464 12,000 -511 Descending Atlanta Center
Thu 07:37:56 AM 33.8667 -84.7333 129° Southeast 403 464 12,100  Climbing Atlanta TRACON
Thu 07:38:56 AM 33.7833 -84.6333 135° Southeast 373 429 12,000 -200 Descending Atlanta TRACON
Thu 07:39:56 AM 33.7333 -84.5500 126° Southeast 291 335 11,700 -700 Descending Atlanta TRACON
Thu 07:40:56 AM 33.7333 -84.4667 90° East 260 299 10,600 -1,286 Descending Atlanta TRACON
Thu 07:42:02 AM 33.7333 -84.3833 90° East 259 298 9,000 -1,500 Descending Atlanta TRACON
Thu 07:42:56 AM 33.7333 -84.3000 90° East 248 285 7,600 -1,526 Descending Atlanta TRACON
Thu 07:43:56 AM 33.7333 -84.2167 90° East 244 281 6,100 -1,600 Descending Atlanta TRACON
Thu 07:44:56 AM 33.6833 -84.2000 164° South 240 276 4,400 -1,250 Descending Atlanta TRACON
Thu 07:45:56 AM 33.6500 -84.2500 231° Southwest 190 219 3,600 -900 Descending Atlanta TRACON
Thu 07:46:56 AM 33.6500 -84.3167 270° West 181 208 2,600 -900 Descending Atlanta TRACON
Thu 07:47:56 AM 33.6500 -84.3667 270° West 127 146 1,800 -800 Descending Atlanta TRACON
Thu 07:49:00 AM 33.6367 -84.4279 126° Southeast  Level Estimated
Thu 07:56:00 AM 33.6367 -84.4279 North  Level Estimated
Thu 07:57:00 AM 33.6367 -84.4279 North  Level Estimated

Login

Don't have an account? Register now (free) for customized features, flight alerts, and more!